Time;durP1;ratioP1;P1;durP2;ratioP2;P2;SDS_P1;SDS_P2;PMS_P1;PMS_P2;Temp;Humidity;BMP_temperature;BMP_pressure;BME280_temperature;BME280_humidity;BME280_pressure;Samples;Min_cycle;Max_cycle;Signal;HPM_P1;HPM_P2
2021/05/16 00:00:11;;;;;;;2.17;1.60;;;11.50;99.90;;;;;;5094618;28;20240;-52
2021/05/16 00:02:37;;;;;;;2.47;2.00;;;11.40;99.90;;;;;;5094289;28;20234;-48
2021/05/16 00:05:04;;;;;;;2.17;1.90;;;10.80;99.90;;;;;;5094351;28;20264;-49
2021/05/16 00:07:30;;;;;;;1.70;1.43;;;11.30;99.90;;;;;;5094067;28;20194;-51
2021/05/16 00:09:55;;;;;;;2.07;1.70;;;11.50;99.90;;;;;;5094876;28;20517;-47
2021/05/16 00:12:21;;;;;;;1.50;1.40;;;11.10;99.90;;;;;;5093961;28;20205;-46
2021/05/16 00:14:48;;;;;;;1.50;1.40;;;10.80;99.90;;;;;;5094808;28;20291;-50
2021/05/16 00:17:14;;;;;;;1.50;1.40;;;11.10;99.90;;;;;;5094224;28;20212;-48
2021/05/16 00:19:40;;;;;;;1.50;1.40;;;11.10;99.90;;;;;;5093979;28;20205;-45
2021/05/16 00:22:06;;;;;;;1.67;1.57;;;11.40;99.90;;;;;;5093916;28;20567;-49
2021/05/16 00:24:31;;;;;;;2.20;1.70;;;11.20;99.90;;;;;;5094255;28;20170;-49
2021/05/16 00:26:57;;;;;;;1.60;1.50;;;10.60;99.90;;;;;;5093738;28;20197;-46
2021/05/16 00:29:23;;;;;;;1.30;1.17;;;10.70;99.90;;;;;;5094028;28;20634;-46
2021/05/16 00:31:48;;;;;;;1.30;1.20;;;11.10;99.90;;;;;;5093846;28;20170;-47
2021/05/16 00:34:14;;;;;;;1.40;1.30;;;10.80;99.90;;;;;;5093936;28;20181;-49
2021/05/16 00:36:39;;;;;;;1.20;1.10;;;10.90;99.90;;;;;;5094101;28;20206;-48
2021/05/16 00:39:06;;;;;;;2.10;1.00;;;10.60;99.90;;;;;;5093754;28;20277;-49
2021/05/16 00:41:31;;;;;;;1.10;1.00;;;10.70;99.90;;;;;;5094012;28;20231;-48
2021/05/16 00:43:57;;;;;;;1.03;0.93;;;10.60;99.90;;;;;;5094370;28;20265;-48
2021/05/16 00:46:23;;;;;;;2.17;1.00;;;10.00;99.90;;;;;;5093782;28;20201;-50
2021/05/16 00:48:49;;;;;;;1.20;1.00;;;10.30;99.90;;;;;;5093925;28;20185;-49
2021/05/16 00:51:15;;;;;;;1.27;0.90;;;10.40;99.90;;;;;;5093654;28;20687;-48
2021/05/16 00:53:40;;;;;;;1.43;1.30;;;10.70;99.90;;;;;;5094246;28;20185;-49
2021/05/16 00:56:06;;;;;;;2.40;0.97;;;10.90;99.90;;;;;;5093901;28;20551;-49
2021/05/16 00:58:32;;;;;;;0.93;0.90;;;10.60;99.90;;;;;;5093862;28;20182;-47
2021/05/16 01:00:59;;;;;;;0.77;0.77;;;10.70;99.90;;;;;;5093588;28;20593;-44
2021/05/16 01:03:27;;;;;;;1.87;1.20;;;10.80;99.90;;;;;;5093374;28;20182;-48
2021/05/16 01:05:53;;;;;;;0.70;0.70;;;11.30;99.90;;;;;;5093559;28;20219;-45
2021/05/16 01:08:19;;;;;;;0.90;0.90;;;11.20;99.90;;;;;;5093500;28;20186;-51
2021/05/16 01:10:46;;;;;;;0.90;0.90;;;11.20;99.90;;;;;;5093437;28;20216;-49
2021/05/16 01:13:12;;;;;;;0.93;0.93;;;11.30;99.90;;;;;;5093826;28;20207;-54
2021/05/16 01:15:40;;;;;;;0.80;0.80;;;11.30;99.90;;;;;;5093394;28;20260;-49
2021/05/16 01:18:06;;;;;;;0.83;0.83;;;11.30;99.90;;;;;;5093703;28;20656;-45
2021/05/16 01:20:36;;;;;;;1.00;0.77;;;11.40;99.90;;;;;;5093460;28;20205;-46
2021/05/16 01:23:05;;;;;;;0.77;0.77;;;11.40;99.90;;;;;;5093219;28;20174;-51
2021/05/16 01:25:39;;;;;;;0.80;0.80;;;11.60;99.90;;;;;;5093534;28;20192;-46
2021/05/16 01:28:07;;;;;;;0.77;0.77;;;11.70;99.90;;;;;;5093999;28;20235;-50
2021/05/16 01:30:33;;;;;;;2.83;1.20;;;11.70;99.90;;;;;;5093446;28;20189;-48
2021/05/16 01:32:59;;;;;;;0.80;0.70;;;;;;;;;;5093321;28;20189;-52
2021/05/16 01:35:25;;;;;;;2.67;0.90;;;11.80;99.90;;;;;;5092965;28;20178;-45
2021/05/16 01:37:51;;;;;;;0.80;0.80;;;11.80;99.90;;;;;;5093277;28;20205;-49
2021/05/16 01:40:19;;;;;;;2.20;0.77;;;11.90;99.90;;;;;;5096760;28;20209;-48
2021/05/16 01:42:48;;;;;;;0.90;0.90;;;11.80;99.90;;;;;;5097383;28;20609;-45
2021/05/16 01:45:16;;;;;;;1.00;0.97;;;11.80;99.90;;;;;;5097150;28;20174;-50
2021/05/16 01:47:42;;;;;;;0.80;0.80;;;11.70;99.90;;;;;;5097166;28;20198;-51
2021/05/16 01:50:13;;;;;;;1.47;1.00;;;11.60;99.90;;;;;;5097135;28;20296;-48
2021/05/16 01:52:41;;;;;;;1.20;0.90;;;11.40;99.90;;;;;;5096529;28;20186;-48
2021/05/16 01:55:08;;;;;;;1.10;1.10;;;11.50;99.90;;;;;;5097239;28;20284;-46
2021/05/16 01:57:34;;;;;;;1.17;1.17;;;11.40;99.90;;;;;;5096686;28;20259;-45
2021/05/16 02:00:00;;;;;;;1.13;1.00;;;11.20;99.90;;;;;;5097121;28;20190;-49
2021/05/16 02:02:27;;;;;;;1.83;1.10;;;11.00;99.90;;;;;;5096403;28;20264;-45
2021/05/16 02:04:53;;;;;;;0.87;0.87;;;11.10;99.90;;;;;;5096819;28;20177;-48
2021/05/16 02:07:20;;;;;;;1.90;1.00;;;10.80;99.90;;;;;;5096654;28;20198;-44
2021/05/16 02:09:47;;;;;;;1.10;0.90;;;10.90;99.90;;;;;;5096588;28;20182;-45
2021/05/16 02:12:16;;;;;;;0.83;0.80;;;10.90;99.90;;;;;;5096339;28;20537;-49
2021/05/16 02:14:43;;;;;;;0.80;0.80;;;10.90;99.90;;;;;;5096751;28;20178;-45
2021/05/16 02:17:11;;;;;;;1.23;1.00;;;10.80;99.90;;;;;;5096251;28;20206;-48
2021/05/16 02:19:37;;;;;;;1.33;0.77;;;10.70;99.90;;;;;;5096522;28;20181;-51
2021/05/16 02:22:03;;;;;;;0.80;0.80;;;10.70;99.90;;;;;;5096278;28;20178;-51
2021/05/16 02:24:29;;;;;;;1.80;1.03;;;10.60;99.90;;;;;;5096345;28;20174;-52
2021/05/16 02:26:59;;;;;;;2.10;1.00;;;10.60;99.90;;;;;;5096007;28;20201;-49
2021/05/16 02:29:25;;;;;;;0.93;0.90;;;10.60;99.90;;;;;;5097369;28;20207;-49
2021/05/16 02:31:51;;;;;;;0.80;0.80;;;10.60;99.90;;;;;;5096228;28;20185;-50
2021/05/16 02:34:16;;;;;;;1.37;0.60;;;10.60;99.90;;;;;;5096574;28;20256;-45
2021/05/16 02:36:42;;;;;;;1.23;0.97;;;10.60;99.90;;;;;;5096034;28;20578;-50
2021/05/16 02:39:07;;;;;;;2.00;0.80;;;10.60;99.90;;;;;;5095835;28;20553;-48
2021/05/16 02:41:33;;;;;;;1.23;0.70;;;10.60;99.90;;;;;;5095917;28;20267;-54
2021/05/16 02:43:58;;;;;;;1.43;1.00;;;10.60;99.90;;;;;;5095908;28;20260;-48
2021/05/16 02:46:24;;;;;;;2.17;0.90;;;10.50;99.90;;;;;;5095626;28;20186;-47
2021/05/16 02:48:50;;;;;;;1.13;1.00;;;10.50;99.90;;;;;;5095992;28;20512;-51
2021/05/16 02:51:15;;;;;;;1.23;1.13;;;10.40;99.90;;;;;;5095673;28;20176;-49
2021/05/16 02:53:41;;;;;;;0.90;0.90;;;10.30;99.90;;;;;;5096132;28;20188;-45
2021/05/16 02:56:06;;;;;;;1.03;1.00;;;10.30;99.90;;;;;;5095521;28;20186;-54
2021/05/16 02:58:32;;;;;;;1.07;1.00;;;10.20;99.90;;;;;;5095845;28;20246;-50
2021/05/16 03:00:58;;;;;;;1.90;1.03;;;10.30;99.90;;;;;;5095669;28;20205;-47
2021/05/16 03:03:23;;;;;;;2.70;0.97;;;10.20;99.90;;;;;;5096165;28;20170;-47
2021/05/16 03:05:49;;;;;;;1.03;0.80;;;10.20;99.90;;;;;;5095456;28;20180;-50
2021/05/16 03:08:15;;;;;;;1.67;1.10;;;10.20;99.90;;;;;;5095603;28;20166;-51
2021/05/16 03:10:40;;;;;;;1.50;1.00;;;10.20;99.90;;;;;;5095326;28;20260;-50
2021/05/16 03:13:06;;;;;;;1.17;0.93;;;10.30;99.90;;;;;;5095354;28;20260;-46
2021/05/16 03:15:32;;;;;;;2.17;1.33;;;10.20;99.90;;;;;;5095349;28;20698;-47
2021/05/16 03:17:58;;;;;;;1.67;1.13;;;10.10;99.90;;;;;;5095412;28;20204;-45
2021/05/16 03:20:23;;;;;;;3.00;1.20;;;10.10;99.90;;;;;;5095218;28;20197;-49
2021/05/16 03:22:49;;;;;;;1.27;1.17;;;10.00;99.90;;;;;;5095134;28;20169;-46
2021/05/16 03:25:15;;;;;;;1.13;1.10;;;9.90;99.90;;;;;;5095473;28;20185;-48
2021/05/16 03:27:40;;;;;;;1.73;1.00;;;9.90;99.90;;;;;;5095753;28;20718;-46
2021/05/16 03:30:10;;;;;;;2.00;0.93;;;9.80;99.90;;;;;;5095541;28;20622;-52
2021/05/16 03:32:36;;;;;;;1.00;1.00;;;9.90;99.90;;;;;;5095087;28;20205;-55
2021/05/16 03:35:04;;;;;;;1.20;0.97;;;9.90;99.90;;;;;;5095330;28;20268;-45
2021/05/16 03:37:29;;;;;;;1.30;1.00;;;9.80;99.90;;;;;;5095082;28;20521;-49
2021/05/16 03:39:55;;;;;;;0.77;0.77;;;9.80;99.90;;;;;;5094425;28;20209;-50
2021/05/16 03:42:21;;;;;;;0.93;0.93;;;9.70;99.90;;;;;;5094998;28;20174;-48
2021/05/16 03:44:46;;;;;;;0.83;0.83;;;9.70;99.90;;;;;;5095089;28;20179;-48
2021/05/16 03:47:12;;;;;;;1.20;1.10;;;9.80;99.90;;;;;;5095030;28;20194;-48
2021/05/16 03:49:37;;;;;;;0.90;0.90;;;9.80;99.90;;;;;;5093409;28;20265;-45
2021/05/16 03:52:04;;;;;;;0.93;0.90;;;9.90;99.90;;;;;;5094629;28;20165;-46
2021/05/16 03:54:30;;;;;;;1.00;0.70;;;9.90;99.90;;;;;;5094792;28;20205;-46
2021/05/16 03:56:55;;;;;;;1.63;0.93;;;9.90;99.90;;;;;;5094645;28;20197;-51
2021/05/16 03:59:21;;;;;;;0.67;0.67;;;9.90;99.90;;;;;;5094936;28;20177;-49
2021/05/16 04:01:47;;;;;;;0.80;0.80;;;9.90;99.90;;;;;;5093521;28;20198;-48
2021/05/16 04:04:12;;;;;;;1.27;1.00;;;9.90;99.90;;;;;;5094576;28;20676;-45
2021/05/16 04:06:38;;;;;;;1.37;1.03;;;9.90;99.90;;;;;;5094520;28;20193;-48
2021/05/16 04:09:04;;;;;;;0.90;0.90;;;9.80;99.90;;;;;;5094069;28;20256;-49
2021/05/16 04:11:29;;;;;;;0.80;0.80;;;9.80;99.90;;;;;;5094860;28;20169;-50
2021/05/16 04:13:55;;;;;;;0.87;0.87;;;9.90;99.90;;;;;;5094542;28;20182;-47
2021/05/16 04:16:20;;;;;;;0.80;0.80;;;10.00;99.90;;;;;;5094348;28;20197;-48
2021/05/16 04:18:46;;;;;;;1.60;0.90;;;10.00;99.90;;;;;;5094575;28;20201;-49
2021/05/16 04:21:12;;;;;;;0.97;0.70;;;10.00;99.90;;;;;;5093867;28;20236;-49
2021/05/16 04:23:38;;;;;;;1.07;0.80;;;9.90;99.90;;;;;;5094323;28;20576;-45
2021/05/16 04:26:04;;;;;;;1.90;1.00;;;9.90;99.90;;;;;;5094209;28;20246;-46
2021/05/16 04:28:29;;;;;;;2.03;1.13;;;9.90;99.90;;;;;;5094121;28;20173;-53
2021/05/16 04:30:55;;;;;;;0.80;0.80;;;9.80;99.90;;;;;;5094130;28;20227;-49
2021/05/16 04:33:21;;;;;;;0.80;0.80;;;9.80;99.90;;;;;;5093770;28;20196;-47
2021/05/16 04:35:46;;;;;;;3.70;0.90;;;9.90;99.90;;;;;;5093714;28;20270;-46
2021/05/16 04:38:12;;;;;;;0.77;0.77;;;9.90;99.90;;;;;;5094502;28;20252;-52
2021/05/16 04:40:38;;;;;;;1.60;1.20;;;9.90;99.90;;;;;;5093514;28;20282;-49
2021/05/16 04:43:03;;;;;;;1.00;0.80;;;10.00;99.90;;;;;;5093968;28;20181;-48
2021/05/16 04:45:29;;;;;;;0.80;0.80;;;10.00;99.90;;;;;;5093874;28;20170;-46
2021/05/16 04:47:54;;;;;;;1.00;0.90;;;10.00;99.90;;;;;;5093643;28;20197;-46
2021/05/16 04:50:20;;;;;;;1.20;0.90;;;10.10;99.90;;;;;;5093882;28;20177;-48
2021/05/16 04:52:46;;;;;;;1.20;1.10;;;10.10;99.90;;;;;;5093793;28;20192;-46
2021/05/16 04:55:15;;;;;;;4.00;1.00;;;10.20;99.90;;;;;;5093539;28;20303;-48
2021/05/16 04:57:41;;;;;;;1.17;0.80;;;10.30;99.90;;;;;;5093480;28;20206;-45
2021/05/16 05:00:08;;;;;;;1.13;0.70;;;10.20;99.90;;;;;;5093371;28;20201;-48
2021/05/16 05:02:41;;;;;;;2.33;1.10;;;10.20;99.90;;;;;;5073668;28;20205;-51
2021/05/16 05:05:07;;;;;;;0.87;0.87;;;10.10;99.90;;;;;;5075338;28;20166;-49
2021/05/16 05:07:33;;;;;;;1.60;0.80;;;10.20;99.90;;;;;;5093409;28;20197;-50
2021/05/16 05:09:59;;;;;;;0.70;0.70;;;10.20;99.90;;;;;;5093561;28;20184;-50
2021/05/16 05:12:24;;;;;;;0.70;0.70;;;10.20;99.90;;;;;;5094520;28;20182;-48
2021/05/16 05:14:50;;;;;;;1.03;0.80;;;10.30;99.90;;;;;;5097908;28;20181;-49
2021/05/16 05:17:15;;;;;;;1.23;1.00;;;10.30;99.90;;;;;;5097468;28;20246;-51
2021/05/16 05:19:41;;;;;;;0.83;0.70;;;10.40;99.90;;;;;;5097827;28;20178;-46
2021/05/16 05:22:06;;;;;;;3.27;0.80;;;10.40;99.90;;;;;;5097079;28;20170;-48
2021/05/16 05:24:32;;;;;;;0.80;0.70;;;10.50;99.90;;;;;;5097566;28;20534;-50
2021/05/16 05:26:57;;;;;;;1.13;0.80;;;10.60;99.90;;;;;;5096148;28;20221;-47
2021/05/16 05:29:23;;;;;;;1.30;1.20;;;10.60;99.90;;;;;;5098173;28;20166;-52
2021/05/16 05:31:48;;;;;;;1.60;1.00;;;10.70;99.90;;;;;;5097018;28;20178;-48
2021/05/16 05:34:14;;;;;;;2.50;0.80;;;10.70;99.90;;;;;;5097382;28;20567;-47
2021/05/16 05:36:39;;;;;;;2.37;1.20;;;10.80;99.90;;;;;;5097131;28;20206;-45
2021/05/16 05:39:05;;;;;;;0.90;0.90;;;10.80;99.90;;;;;;5097436;28;20193;-49
2021/05/16 05:41:31;;;;;;;1.30;0.97;;;10.80;99.90;;;;;;5096754;28;20209;-54
2021/05/16 05:43:57;;;;;;;1.53;0.90;;;10.90;99.90;;;;;;5097149;28;20703;-55
2021/05/16 05:46:22;;;;;;;1.80;0.90;;;11.00;99.90;;;;;;5096865;28;20280;-50
2021/05/16 05:48:48;;;;;;;0.70;0.70;;;10.90;99.90;;;;;;5097108;28;20525;-47
2021/05/16 05:51:14;;;;;;;0.83;0.83;;;11.00;99.90;;;;;;5097134;28;20193;-49
2021/05/16 05:53:40;;;;;;;1.60;0.90;;;11.10;99.90;;;;;;5097762;28;20569;-49
2021/05/16 05:56:06;;;;;;;1.93;1.10;;;11.20;99.90;;;;;;5096940;28;20281;-45
2021/05/16 05:58:35;;;;;;;0.53;0.53;;;11.30;99.90;;;;;;5097030;28;20181;-47
2021/05/16 06:01:01;;;;;;;0.67;0.60;;;11.50;99.90;;;;;;5096358;28;20767;-51
2021/05/16 06:03:27;;;;;;;1.70;0.73;;;11.80;99.90;;;;;;5095706;28;20214;-47
2021/05/16 06:05:52;;;;;;;1.47;0.90;;;12.00;99.90;;;;;;5096834;28;20634;-46
2021/05/16 06:08:19;;;;;;;0.70;0.70;;;12.10;99.90;;;;;;5096691;28;20530;-50
2021/05/16 06:10:45;;;;;;;0.97;0.77;;;12.10;99.90;;;;;;5096450;28;20190;-50
2021/05/16 06:13:10;;;;;;;0.70;0.60;;;12.10;99.90;;;;;;5097135;28;20181;-49
2021/05/16 06:15:36;;;;;;;1.10;0.70;;;12.30;99.90;;;;;;5096610;28;20185;-46
2021/05/16 06:18:02;;;;;;;2.00;0.70;;;12.40;99.90;;;;;;5096785;28;20197;-54
2021/05/16 06:20:28;;;;;;;1.27;0.70;;;12.50;99.90;;;;;;5096524;28;20557;-53
2021/05/16 06:22:54;;;;;;;0.73;0.60;;;12.50;99.90;;;;;;5095980;28;20216;-49
2021/05/16 06:25:20;;;;;;;1.17;0.70;;;12.70;99.90;;;;;;5095530;28;20178;-51
2021/05/16 06:27:45;;;;;;;2.37;0.80;;;12.80;99.90;;;;;;5096454;28;20252;-48
2021/05/16 06:30:11;;;;;;;0.87;0.77;;;12.90;99.90;;;;;;5096143;28;20182;-52
2021/05/16 06:32:38;;;;;;;1.47;0.70;;;12.80;99.90;;;;;;5096230;28;20238;-52
2021/05/16 06:35:04;;;;;;;1.07;0.97;;;12.80;99.90;;;;;;5095623;28;20657;-46
2021/05/16 06:37:29;;;;;;;1.10;0.70;;;12.70;99.90;;;;;;5096253;28;20271;-50
2021/05/16 06:39:55;;;;;;;0.70;0.53;;;12.60;99.90;;;;;;5095745;28;20666;-45
2021/05/16 06:42:21;;;;;;;0.73;0.60;;;12.50;99.90;;;;;;5095977;28;20586;-49
2021/05/16 06:44:47;;;;;;;1.07;0.80;;;12.40;99.90;;;;;;5095982;28;20186;-45
2021/05/16 06:47:13;;;;;;;1.60;0.80;;;12.30;99.90;;;;;;5095900;28;20193;-46
2021/05/16 06:49:38;;;;;;;3.37;1.00;;;12.40;99.90;;;;;;5096249;28;20637;-45
2021/05/16 06:52:04;;;;;;;2.83;0.90;;;12.40;99.90;;;;;;5095497;28;20205;-49
2021/05/16 06:54:30;;;;;;;2.83;1.10;;;12.40;99.90;;;;;;5095589;28;20180;-51
2021/05/16 06:56:56;;;;;;;2.10;0.70;;;12.40;99.90;;;;;;5095062;28;20230;-44
2021/05/16 06:59:22;;;;;;;0.67;0.63;;;12.40;99.90;;;;;;5095933;28;20253;-49
2021/05/16 07:01:47;;;;;;;1.20;0.90;;;12.60;99.90;;;;;;5095210;28;20661;-48
2021/05/16 07:04:13;;;;;;;2.10;1.10;;;12.60;99.90;;;;;;5095656;28;20170;-45
2021/05/16 07:06:39;;;;;;;2.70;0.77;;;12.60;99.90;;;;;;5094596;28;20197;-49
2021/05/16 07:09:05;;;;;;;3.60;0.80;;;12.70;99.90;;;;;;5095507;28;20638;-48
2021/05/16 07:11:31;;;;;;;1.33;0.90;;;12.80;99.90;;;;;;5092645;28;20189;-47
2021/05/16 07:13:56;;;;;;;2.40;0.73;;;12.70;99.90;;;;;;5095033;28;20572;-50
2021/05/16 07:16:22;;;;;;;1.13;0.70;;;12.50;99.90;;;;;;5095327;28;20201;-46
2021/05/16 07:18:47;;;;;;;1.27;0.75;;;12.40;99.90;;;;;;5093926;28;20462;-48
2021/05/16 07:21:13;;;;;;;1.03;0.80;;;12.30;99.90;;;;;;5092152;28;20227;-46
2021/05/16 07:23:38;;;;;;;1.20;0.70;;;12.40;99.90;;;;;;5093606;28;20185;-54
2021/05/16 07:26:04;;;;;;;2.10;1.10;;;12.20;99.90;;;;;;5095125;28;20189;-52
2021/05/16 07:28:29;;;;;;;1.50;0.63;;;12.10;99.90;;;;;;5094144;28;20174;-49
2021/05/16 07:30:55;;;;;;;3.80;0.77;;;12.00;99.90;;;;;;5095563;28;20166;-52
2021/05/16 07:33:21;;;;;;;1.57;0.70;;;12.00;99.90;;;;;;5092670;28;20177;-48
2021/05/16 07:35:46;;;;;;;0.73;0.73;;;12.10;99.90;;;;;;5094606;28;20541;-55
2021/05/16 07:38:12;;;;;;;1.67;0.93;;;12.20;99.90;;;;;;5094900;28;20178;-46
2021/05/16 07:40:38;;;;;;;1.47;0.80;;;12.40;99.90;;;;;;5095124;28;20546;-49
2021/05/16 07:43:04;;;;;;;1.77;0.70;;;12.60;99.90;;;;;;5094551;28;20196;-51
2021/05/16 07:45:30;;;;;;;1.47;0.70;;;12.80;99.90;;;;;;5094651;28;20166;-47
2021/05/16 07:47:57;;;;;;;0.87;0.70;;;12.90;99.90;;;;;;5092560;28;20201;-47
2021/05/16 07:50:22;;;;;;;2.73;1.03;;;12.90;99.90;;;;;;5093817;28;20178;-50
2021/05/16 07:52:48;;;;;;;2.57;1.00;;;12.90;99.90;;;;;;5094318;28;20177;-48
2021/05/16 07:55:13;;;;;;;1.37;0.80;;;12.80;99.90;;;;;;5093294;28;20187;-48
2021/05/16 07:57:39;;;;;;;2.67;0.97;;;12.70;99.90;;;;;;5094063;28;20665;-54
2021/05/16 08:00:10;;;;;;;2.67;1.00;;;12.50;99.90;;;;;;5092665;28;20236;-52
2021/05/16 08:02:36;;;;;;;1.27;0.70;;;12.30;99.90;;;;;;5091790;28;20173;-48
2021/05/16 08:05:01;;;;;;;1.73;0.80;;;12.20;99.90;;;;;;5092705;28;20161;-48
2021/05/16 08:07:27;;;;;;;1.90;0.73;;;12.20;99.90;;;;;;5094047;28;20281;-49
2021/05/16 08:09:52;;;;;;;2.47;1.00;;;12.20;99.90;;;;;;5092106;28;20280;-48
2021/05/16 08:12:18;;;;;;;1.63;0.87;;;12.20;99.90;;;;;;5093690;28;20633;-46
2021/05/16 08:14:44;;;;;;;1.30;0.80;;;12.40;99.90;;;;;;5094055;28;20181;-46
2021/05/16 08:17:09;;;;;;;1.20;1.03;;;12.70;99.90;;;;;;5093212;28;20213;-49
2021/05/16 08:19:35;;;;;;;5.00;2.87;;;12.90;99.90;;;;;;5093347;28;20249;-51
2021/05/16 08:22:01;;;;;;;4.40;1.67;;;13.10;99.90;;;;;;5092390;28;20182;-52
2021/05/16 08:24:26;;;;;;;2.00;1.13;;;13.20;99.90;;;;;;5094010;28;20184;-45
2021/05/16 08:26:52;;;;;;;1.93;1.10;;;13.40;99.90;;;;;;5094215;28;20248;-48
2021/05/16 08:29:17;;;;;;;1.40;0.80;;;13.50;99.90;;;;;;5092324;28;20174;-45
2021/05/16 08:31:43;;;;;;;1.50;1.40;;;13.60;99.90;;;;;;5093356;28;20213;-46
2021/05/16 08:34:08;;;;;;;11.20;8.30;;;13.80;99.90;;;;;;5093992;28;20183;-45
2021/05/16 08:36:41;;;;;;;2.30;1.33;;;13.90;99.90;;;;;;5079528;28;20232;-53
2021/05/16 08:39:08;;;;;;;2.80;1.57;;;14.10;99.90;;;;;;5087531;28;20203;-46
2021/05/16 08:41:35;;;;;;;3.00;1.47;;;14.30;99.90;;;;;;5085303;28;20533;-53
2021/05/16 08:44:01;;;;;;;2.93;2.10;;;14.40;99.90;;;;;;5093218;28;20225;-47
2021/05/16 08:46:27;;;;;;;0.87;0.87;;;14.70;99.90;;;;;;5093060;28;20250;-46
2021/05/16 08:48:53;;;;;;;3.43;1.67;;;14.90;99.90;;;;;;5093456;28;20182;-51
2021/05/16 08:51:19;;;;;;;1.57;0.83;;;15.00;99.90;;;;;;5093655;28;20213;-46
2021/05/16 08:53:44;;;;;;;1.40;0.87;;;15.20;99.90;;;;;;5088412;28;20237;-53
2021/05/16 08:56:10;;;;;;;1.73;1.03;;;15.20;99.90;;;;;;5091400;28;20214;-45
2021/05/16 08:58:37;;;;;;;1.53;1.00;;;16.20;99.90;;;;;;5075483;28;20212;-47
2021/05/16 09:01:17;;;;;;;0.90;0.70;;;15.10;99.90;;;;;;5074309;28;20202;-49
2021/05/16 09:03:43;;;;;;;126.30;96.27;;;15.10;99.90;;;;;;5091061;28;20181;-50
2021/05/16 09:06:08;;;;;;;7.73;4.93;;;14.90;99.90;;;;;;5088788;28;20208;-51
2021/05/16 09:08:34;;;;;;;3.13;1.10;;;14.60;99.90;;;;;;5093066;28;20712;-52
2021/05/16 09:11:01;;;;;;;1.83;0.90;;;14.40;99.90;;;;;;5092039;28;20184;-52
2021/05/16 09:13:28;;;;;;;1.50;0.80;;;14.90;99.90;;;;;;5092922;28;20192;-52
2021/05/16 09:16:01;;;;;;;1.55;0.90;;;14.20;99.90;;;;;;5091893;28;20812;-50
2021/05/16 09:18:33;;;;;;;2.60;1.27;;;14.20;99.90;;;;;;5090625;28;20271;-45
2021/05/16 09:21:31;;;;;;;2.17;1.17;;;14.20;99.90;;;;;;5092952;28;20705;-53
2021/05/16 09:23:59;;;;;;;1.10;0.80;;;14.30;99.90;;;;;;5092930;28;20192;-48
2021/05/16 09:26:25;;;;;;;1.97;0.90;;;14.30;99.90;;;;;;5092690;28;20291;-54
2021/05/16 09:28:53;;;;;;;2.20;1.20;;;14.30;99.90;;;;;;5092751;28;20177;-44
2021/05/16 09:31:34;;;;;;;0.97;0.90;;;14.40;99.90;;;;;;5092298;28;20176;-47
2021/05/16 09:34:04;;;;;;;1.50;0.87;;;14.70;99.90;;;;;;5092077;28;20189;-44
2021/05/16 09:36:34;;;;;;;2.37;0.83;;;15.00;99.90;;;;;;5087763;28;20298;-52
2021/05/16 09:39:19;;;;;;;1.60;1.00;;;15.40;99.90;;;;;;5092498;28;20655;-46
2021/05/16 09:42:15;;;;;;;6.23;1.57;;;15.60;99.90;;;;;;5084344;28;20194;-50
2021/05/16 09:44:48;;;;;;;1.73;1.07;;;15.70;99.90;;;;;;5048537;28;20195;-53
2021/05/16 09:47:23;;;;;;;1.03;0.77;;;15.70;99.90;;;;;;5050403;28;20654;-45
2021/05/16 09:49:54;;;;;;;1.83;1.00;;;15.80;99.90;;;;;;5049443;28;20596;-45
2021/05/16 09:52:30;;;;;;;2.17;0.90;;;16.20;99.90;;;;;;5049872;28;20179;-50
2021/05/16 09:55:00;;;;;;;2.13;1.27;;;15.90;99.90;;;;;;5048034;28;20627;-56
2021/05/16 09:57:32;;;;;;;5.83;3.63;;;16.20;99.90;;;;;;5048491;28;20536;-53
2021/05/16 09:59:58;;;;;;;2.30;1.20;;;16.20;99.90;;;;;;5051278;28;20195;-50
2021/05/16 10:02:27;;;;;;;1.40;1.00;;;16.40;99.90;;;;;;5053914;28;20191;-45
2021/05/16 10:04:54;;;;;;;1.70;1.00;;;16.60;99.90;;;;;;5053750;28;20179;-50
2021/05/16 10:07:23;;;;;;;1.00;0.90;;;16.60;99.90;;;;;;5052694;28;20215;-49
2021/05/16 10:09:51;;;;;;;0.90;0.70;;;16.50;99.90;;;;;;5053416;28;20575;-49
2021/05/16 10:12:18;;;;;;;3.50;1.40;;;16.40;99.90;;;;;;5052369;28;20528;-51
2021/05/16 10:14:48;;;;;;;6.03;3.23;;;16.40;99.90;;;;;;5053676;28;20203;-48
2021/05/16 10:17:15;;;;;;;2.80;1.80;;;16.40;99.90;;;;;;5052936;28;20253;-54
2021/05/16 10:19:42;;;;;;;1.93;1.47;;;16.50;99.90;;;;;;5053803;28;20177;-45
2021/05/16 10:22:07;;;;;;;1.57;0.90;;;16.70;99.90;;;;;;5093997;28;20187;-48
2021/05/16 10:24:46;;;;;;;1.37;0.70;;;17.00;99.90;;;;;;5095365;28;20281;-45
2021/05/16 10:27:21;;;;;;;2.80;0.93;;;17.20;99.90;;;;;;5093469;28;20288;-45
2021/05/16 10:29:51;;;;;;;1.13;0.70;;;17.20;99.90;;;;;;5096327;28;20602;-54
2021/05/16 10:32:22;;;;;;;1.83;1.07;;;17.10;99.90;;;;;;5094582;28;20596;-48
2021/05/16 10:34:55;;;;;;;2.10;0.90;;;16.70;99.90;;;;;;5095847;28;20178;-50
2021/05/16 10:37:34;;;;;;;1.80;1.70;;;16.50;99.90;;;;;;5095551;28;20526;-45
2021/05/16 10:40:00;;;;;;;3.83;0.90;;;16.20;99.90;;;;;;5095556;28;20300;-45
2021/05/16 10:42:35;;;;;;;6.47;5.80;;;16.20;99.90;;;;;;5094570;28;20194;-48
2021/05/16 10:45:05;;;;;;;1.67;1.00;;;16.10;99.90;;;;;;5095768;28;20173;-48
2021/05/16 10:50:23;;;;;;;1.67;0.87;;;16.30;99.90;;;;;;5096038;28;20760;-50
2021/05/16 10:52:59;;;;;;;1.47;0.80;;;16.50;99.90;;;;;;5090561;28;20667;-47
2021/05/16 10:55:32;;;;;;;5.60;1.87;;;16.90;99.90;;;;;;5094869;28;20191;-45
2021/05/16 10:57:58;;;;;;;3.07;1.50;;;17.20;99.90;;;;;;5094359;28;20286;-46
2021/05/16 11:00:25;;;;;;;3.40;0.80;;;17.60;99.90;;;;;;5095514;28;20205;-44
2021/05/16 11:03:08;;;;;;;1.73;0.87;;;17.70;99.90;;;;;;5093984;28;20174;-47
2021/05/16 11:08:09;;;;;;;2.10;0.80;;;18.00;99.90;;;;;;5095220;28;20174;-47
2021/05/16 11:10:36;;;;;;;1.50;0.87;;;18.00;99.90;;;;;;5094797;28;20219;-44
2021/05/16 11:13:11;;;;;;;1.37;0.67;;;18.10;99.90;;;;;;5095143;28;20189;-49
2021/05/16 11:15:44;;;;;;;2.10;1.00;;;18.30;99.90;;;;;;5094276;28;20644;-51
2021/05/16 11:18:10;;;;;;;2.67;1.00;;;18.60;99.90;;;;;;5095100;28;20217;-51
2021/05/16 11:20:36;;;;;;;1.73;0.80;;;18.70;99.90;;;;;;5094074;28;20233;-49
2021/05/16 11:23:01;;;;;;;2.67;1.83;;;18.90;99.90;;;;;;5094520;28;20657;-54
2021/05/16 11:25:28;;;;;;;3.40;1.83;;;19.10;99.90;;;;;;5094973;28;20219;-47
2021/05/16 11:27:53;;;;;;;0.80;0.60;;;19.20;99.90;;;;;;5094859;28;20194;-50
2021/05/16 11:30:27;;;;;;;2.43;0.90;;;19.00;99.90;;;;;;5094183;28;20197;-48
2021/05/16 11:32:52;;;;;;;1.50;0.70;;;18.80;99.90;;;;;;5094259;28;20182;-45
2021/05/16 11:35:21;;;;;;;2.97;1.50;;;18.60;99.90;;;;;;5093717;28;20285;-44
2021/05/16 11:37:53;;;;;;;1.63;0.63;;;18.50;99.90;;;;;;5094519;28;20220;-45
2021/05/16 11:40:18;;;;;;;3.90;1.03;;;18.30;99.90;;;;;;5094398;28;20220;-49
2021/05/16 11:42:45;;;;;;;5.50;3.27;;;18.30;99.90;;;;;;5092907;28;20173;-46
2021/05/16 11:45:12;;;;;;;2.10;1.57;;;18.40;99.90;;;;;;5094267;28;20206;-46
2021/05/16 11:47:40;;;;;;;2.10;1.20;;;18.50;99.90;;;;;;5093731;28;20194;-46
2021/05/16 11:50:08;;;;;;;2.03;1.00;;;18.70;99.90;;;;;;5093569;28;20565;-48
2021/05/16 11:52:34;;;;;;;1.67;0.87;;;18.80;99.90;;;;;;5093178;28;20672;-45
2021/05/16 11:55:11;;;;;;;1.50;0.90;;;18.70;99.90;;;;;;5090787;28;20680;-49
2021/05/16 11:57:42;;;;;;;1.50;0.80;;;18.50;99.90;;;;;;5094654;28;20592;-56
2021/05/16 12:00:12;;;;;;;3.87;0.93;;;18.70;99.90;;;;;;5091139;28;20249;-56
2021/05/16 12:02:40;;;;;;;2.13;1.20;;;18.80;99.90;;;;;;5085406;28;21749;-49
2021/05/16 12:05:06;;;;;;;2.80;1.33;;;18.90;99.90;;;;;;5091269;28;20213;-48
2021/05/16 12:07:32;;;;;;;1.33;0.90;;;18.90;99.90;;;;;;5096556;28;20204;-45
2021/05/16 12:09:58;;;;;;;1.90;1.00;;;18.90;99.90;;;;;;5092933;28;20174;-47
2021/05/16 12:12:27;;;;;;;4.07;1.17;;;19.10;99.90;;;;;;5091385;28;20193;-55
2021/05/16 12:14:55;;;;;;;1.83;0.87;;;19.10;99.90;;;;;;5094116;28;20277;-57
2021/05/16 12:17:30;;;;;;;1.50;0.90;;;19.00;99.90;;;;;;5094643;28;20229;-47
2021/05/16 12:19:55;;;;;;;2.30;0.97;;;19.00;99.90;;;;;;5094280;28;20195;-48
2021/05/16 12:22:21;;;;;;;1.73;0.87;;;19.30;99.90;;;;;;5092468;28;20537;-50
2021/05/16 12:24:48;;;;;;;1.73;0.80;;;19.40;99.90;;;;;;5094027;28;20681;-53
2021/05/16 12:27:19;;;;;;;2.17;0.83;;;19.60;99.90;;;;;;5093142;28;20205;-56
2021/05/16 12:29:47;;;;;;;1.17;0.93;;;19.70;99.90;;;;;;5093453;28;20186;-47
2021/05/16 12:32:19;;;;;;;2.67;1.10;;;19.70;99.90;;;;;;5079711;28;20179;-57
2021/05/16 12:34:45;;;;;;;3.10;0.90;;;19.50;99.90;;;;;;5089256;28;20200;-48
2021/05/16 12:37:18;;;;;;;2.70;1.17;;;19.30;99.90;;;;;;5092934;28;20194;-49
2021/05/16 12:39:48;;;;;;;3.27;0.90;;;19.20;99.90;;;;;;5093508;28;20620;-53
2021/05/16 12:42:23;;;;;;;2.37;1.13;;;19.20;99.90;;;;;;5092710;28;20284;-50
2021/05/16 12:44:50;;;;;;;3.73;1.23;;;19.40;99.90;;;;;;5093170;28;20653;-49
2021/05/16 12:47:27;;;;;;;2.60;1.10;;;19.50;99.90;;;;;;5093454;28;20201;-53
2021/05/16 12:50:05;;;;;;;2.50;0.87;;;19.40;99.90;;;;;;5094304;28;20174;-47
2021/05/16 12:52:30;;;;;;;2.40;1.50;;;19.20;99.90;;;;;;5092116;28;20187;-48